Velocity — WDJ3094 — position and weather

sailwx.info

Track history (hours):
 
Tides and Currents Weather Stations Pressure Air Temp Water Temp Dewpoint Dewpoint Depression Visibility Wind Speed Wind Dir Waves Ship Positions

Velocity

Owner: Schafer 516, John, Arlington, VA. More information available from US FCC via Universal Licensing System and Coast Guard Vessel Documentation Center.

Last reported at 2018-Jun-19 18:17 UTC. Time now 2018-Jun-19 22:11 UTC.
Position N 36°52' W 076°20'.

Length 15 m.

Type: Sailing vessel. MMSI: 367764690.

Date/timePositionNaut miles runAvg speedWind from/ knotsBaromVisibWave heightAir tempDewpointWater temp
2018-Jun-19 18:17N 36°52' W 076°20'2 7.2
2018-Jun-19 18:00N 36°51' W 076°18'3 6.7
2018-Jun-19 17:30N 36°48' W 076°18'2 3.9
2018-Jun-19 17:00N 36°46' W 076°18'111 2.2
2018-Jun-17 13:29N 34°56' W 076°39'3 7.0
2018-Jun-17 13:00N 34°53' W 076°41'3 6.3
2018-Jun-17 12:30N 34°50' W 076°41'3 6.6
2018-Jun-17 12:00N 34°46' W 076°41'3 5.6
2018-Jun-17 11:30N 34°44' W 076°40'0 0.0
2018-Jun-15 21:09N 34°44' W 076°40'0 0.0
2018-Jun-15 21:00N 34°44' W 076°40'0 0.0
2018-Jun-15 20:30N 34°44' W 076°40'0 0.0
2018-Jun-15 20:00N 34°44' W 076°40'0 0.0
2018-Jun-15 19:30N 34°44' W 076°40'0 0.0
2018-Jun-15 19:00N 34°44' W 076°40'0 0.0
2018-Jun-15 18:30N 34°44' W 076°40'0 0.0
2018-Jun-15 18:00N 34°44' W 076°40'0 0.0
2018-Jun-15 17:30N 34°44' W 076°40'0 0.0
2018-Jun-15 17:00N 34°44' W 076°40'0 0.0
2018-Jun-15 16:30N 34°44' W 076°40'0 0.0
2018-Jun-15 16:00N 34°44' W 076°40'0 0.0
2018-Jun-15 15:30N 34°44' W 076°40'0 0.0
2018-Jun-15 15:00N 34°44' W 076°40'0 0.0
2018-Jun-15 14:30N 34°44' W 076°40'0 0.0
2018-Jun-15 14:00N 34°44' W 076°40'0 0.0
2018-Jun-15 13:30N 34°44' W 076°40'0 0.0
2018-Jun-15 13:00N 34°44' W 076°40'0 0.0
2018-Jun-15 12:30N 34°44' W 076°40'0 0.0
2018-Jun-15 12:00N 34°44' W 076°40'0 0.0
2018-Jun-15 11:30N 34°44' W 076°40'0 0.0
2018-Jun-15 11:00N 34°44' W 076°40'0 0.0
2018-Jun-15 10:30N 34°44' W 076°40'0 0.0
2018-Jun-15 10:00N 34°44' W 076°40'0 0.0
2018-Jun-15 09:30N 34°44' W 076°40'0 0.0
2018-Jun-15 09:00N 34°44' W 076°40'0 0.0
2018-Jun-15 08:30N 34°44' W 076°40'0 0.0
2018-Jun-15 08:00N 34°44' W 076°40'0 0.0
2018-Jun-15 07:30N 34°44' W 076°40'0 0.0
2018-Jun-15 07:00N 34°44' W 076°40'0 0.0
2018-Jun-15 06:24N 34°44' W 076°40'0 0.0
2018-Jun-15 06:00N 34°44' W 076°40'0 0.0
2018-Jun-15 05:30N 34°44' W 076°40'0 0.0
2018-Jun-15 05:00N 34°44' W 076°40'0 0.0
2018-Jun-15 04:30N 34°44' W 076°40'0 0.0
2018-Jun-15 04:00N 34°44' W 076°40'0 0.0
2018-Jun-15 03:30N 34°44' W 076°40'0 0.0
2018-Jun-15 03:00N 34°44' W 076°40'0 0.0
2018-Jun-15 02:30N 34°44' W 076°40'0 0.0
2018-Jun-15 02:00N 34°44' W 076°40'  
Track history (hours):
 
Tides and Currents Weather Stations Pressure Air Temp Water Temp Dewpoint Dewpoint Depression Visibility Wind Speed Wind Dir Waves Ship Positions

Velocity

Owner: Schafer 516, John, Arlington, VA. More information available from US FCC via Universal Licensing System and Coast Guard Vessel Documentation Center.

Last reported at 2018-Jun-19 18:17 UTC. Time now 2018-Jun-19 22:11 UTC.
Position N 36°52' W 076°20'.

Length 15 m.

Type: Sailing vessel. MMSI: 367764690.

Date/timePositionNaut miles runAvg speedWind from/ knotsBaromVisibWave heightAir tempDewpointWater temp
2018-Jun-19 18:17N 36°52' W 076°20'2 7.2
2018-Jun-19 18:00N 36°51' W 076°18'3 6.7
2018-Jun-19 17:30N 36°48' W 076°18'2 3.9
2018-Jun-19 17:00N 36°46' W 076°18'111 2.2
2018-Jun-17 13:29N 34°56' W 076°39'3 7.0
2018-Jun-17 13:00N 34°53' W 076°41'3 6.3
2018-Jun-17 12:30N 34°50' W 076°41'3 6.6
2018-Jun-17 12:00N 34°46' W 076°41'3 5.6
2018-Jun-17 11:30N 34°44' W 076°40'0 0.0
2018-Jun-15 21:09N 34°44' W 076°40'0 0.0
2018-Jun-15 21:00N 34°44' W 076°40'0 0.0
2018-Jun-15 20:30N 34°44' W 076°40'0 0.0
2018-Jun-15 20:00N 34°44' W 076°40'0 0.0
2018-Jun-15 19:30N 34°44' W 076°40'0 0.0
2018-Jun-15 19:00N 34°44' W 076°40'0 0.0
2018-Jun-15 18:30N 34°44' W 076°40'0 0.0
2018-Jun-15 18:00N 34°44' W 076°40'0 0.0
2018-Jun-15 17:30N 34°44' W 076°40'0 0.0
2018-Jun-15 17:00N 34°44' W 076°40'0 0.0
2018-Jun-15 16:30N 34°44' W 076°40'0 0.0
2018-Jun-15 16:00N 34°44' W 076°40'0 0.0
2018-Jun-15 15:30N 34°44' W 076°40'0 0.0
2018-Jun-15 15:00N 34°44' W 076°40'0 0.0
2018-Jun-15 14:30N 34°44' W 076°40'0 0.0
2018-Jun-15 14:00N 34°44' W 076°40'0 0.0
2018-Jun-15 13:30N 34°44' W 076°40'0 0.0
2018-Jun-15 13:00N 34°44' W 076°40'0 0.0
2018-Jun-15 12:30N 34°44' W 076°40'0 0.0
2018-Jun-15 12:00N 34°44' W 076°40'0 0.0
2018-Jun-15 11:30N 34°44' W 076°40'0 0.0
2018-Jun-15 11:00N 34°44' W 076°40'0 0.0
2018-Jun-15 10:30N 34°44' W 076°40'0 0.0
2018-Jun-15 10:00N 34°44' W 076°40'0 0.0
2018-Jun-15 09:30N 34°44' W 076°40'0 0.0
2018-Jun-15 09:00N 34°44' W 076°40'0 0.0
2018-Jun-15 08:30N 34°44' W 076°40'0 0.0
2018-Jun-15 08:00N 34°44' W 076°40'0 0.0
2018-Jun-15 07:30N 34°44' W 076°40'0 0.0
2018-Jun-15 07:00N 34°44' W 076°40'0 0.0
2018-Jun-15 06:24N 34°44' W 076°40'0 0.0
2018-Jun-15 06:00N 34°44' W 076°40'0 0.0
2018-Jun-15 05:30N 34°44' W 076°40'0 0.0
2018-Jun-15 05:00N 34°44' W 076°40'0 0.0
2018-Jun-15 04:30N 34°44' W 076°40'0 0.0
2018-Jun-15 04:00N 34°44' W 076°40'0 0.0
2018-Jun-15 03:30N 34°44' W 076°40'0 0.0
2018-Jun-15 03:00N 34°44' W 076°40'0 0.0
2018-Jun-15 02:30N 34°44' W 076°40'0 0.0
2018-Jun-15 02:00N 34°44' W 076°40'  

Dump ship's entire track history